Friday, November 24, 2017, 8:14 AM EST
Back to Local

KBWI, Baltimore-washington International

Location: Glen Burnie, MD, United States Lat: 39.167
Local Time: 8:14 AM EST (13:14 GMT) Lon: -76.683
Time Zone: US/Eastern Elev: 147 ft

Show me the last for .
Show Decoded

2017-11-24 07:54 METAR KBWI 241254Z 00000KT 10SM FEW008 M01/M03 A3009 RMK AO2 SLP190 FU FEW008 FU
                 PLUME NE T10111033 =
2017-11-24 06:54 METAR KBWI 241154Z 00000KT 9SM CLR M03/M04 A3007 RMK AO2 SLP184 T10331044 11017
                 21039 51002 =
2017-11-24 05:54 METAR KBWI 241054Z 00000KT 10SM CLR M03/M04 A3007 RMK AO2 SLP184 T10281044 =
2017-11-24 04:54 METAR KBWI 240954Z 00000KT 10SM CLR M03/M04 A3007 RMK AO2 SLP184 T10281044 =
2017-11-24 03:54 METAR KBWI 240854Z 00000KT 10SM CLR M03/M04 A3006 RMK AO2 SLP182 T10281044 53001
                 =
2017-11-24 02:54 METAR KBWI 240754Z 00000KT 10SM CLR M02/M04 A3007 RMK AO2 SLP183 T10221044 =
2017-11-24 01:54 METAR KBWI 240654Z 00000KT 10SM CLR M02/M04 A3005 RMK AO2 SLP178 T10221039 =
2017-11-24 00:54 METAR KBWI 240554Z 00000KT 10SM CLR M02/M04 A3006 RMK AO2 SLP181 T10221039 10006
                 21028 58004 =
2017-11-23 23:54 METAR KBWI 240454Z 26003KT 10SM CLR M02/M04 A3007 RMK AO2 SLP185 T10221044
                 400671028 =
2017-11-23 22:54 METAR KBWI 240354Z 00000KT 10SM CLR M01/M04 A3007 RMK AO2 SLP185 T10111044 =
2017-11-23 21:54 METAR KBWI 240254Z 00000KT 10SM CLR M01/M04 A3007 RMK AO2 SLP185 T10111044 53008
                 =
2017-11-23 20:54 METAR KBWI 240154Z 00000KT 10SM CLR M01/M05 A3007 RMK AO2 SLP182 T10111050 =
2017-11-23 19:54 METAR KBWI 240054Z 00000KT 10SM CLR M01/M04 A3005 RMK AO2 SLP176 T10061044 =
2017-11-23 18:54 METAR KBWI 232354Z 00000KT 10SM FEW250 01/M05 A3005 RMK AO2 SLP178 T00061050
                 10067 20006 58003 =
2017-11-23 17:54 METAR KBWI 232254Z 00000KT 10SM FEW250 03/M04 A3007 RMK AO2 SLP183 T00281044 =
2017-11-23 16:54 METAR KBWI 232154Z 26004KT 10SM FEW180 FEW250 03/M05 A3006 RMK AO2 SLP181
                 T00331050 =
2017-11-23 15:54 METAR KBWI 232054Z VRB03KT 10SM FEW180 FEW250 06/M05 A3006 RMK AO2 SLP180
                 T00611050 56010 =
2017-11-23 14:54 METAR KBWI 231954Z 31005KT 10SM FEW250 07/M05 A3007 RMK AO2 SLP182 T00671050 =
2017-11-23 13:54 METAR KBWI 231854Z 32008KT 10SM FEW250 07/M05 A3008 RMK AO2 SLP186 T00671050 =
2017-11-23 12:54 METAR KBWI 231754Z 28004KT 10SM FEW250 06/M05 A3009 RMK AO2 SLP190 T00561050
                 10061 21022 58027 =
2017-11-23 11:54 METAR KBWI 231654Z 31008KT 10SM FEW250 06/M04 A3011 RMK AO2 SLP196 T00611044 =
2017-11-23 10:54 METAR KBWI 231554Z 00000KT 10SM FEW048 FEW100 FEW250 04/M05 A3015 RMK AO2 SLP211
                 T00391050 =
2017-11-23 09:54 METAR KBWI 231454Z 32006KT 10SM FEW038 FEW100 SCT250 03/M06 A3017 RMK AO2 SLP217
                 T00331056 58002 =
2017-11-23 08:54 METAR KBWI 231354Z 29004KT 10SM FEW038 FEW100 SCT250 01/M04 A3019 RMK AO2 SLP225
                 T00111039 =

Support USWX by starting your Amazon purchase here.